Key West International Airport
KEYW : now visible

Aeroporto :











RITROVATECI SU...

 
LOGIN :

Iscrizione | Disclaimer

   EN    FR    IT 

 









Sommario :    VFR   VFR Marginale   IFR   IFR Intensivo   IFR Molto Intensivo
Visibilità : 
Base nubi : 
>= 8 km
>= 3000ft
5 / 8 km
1000 / 3000 ft
1500m / 5 km
500 / 1000 ft
800 / 1500m
200 / 500 ft
< 800m
< 200 ft
Simboli :   Temporali  Nebbia  Neve Forte  Precipitazioni Forti  Vento > 20 kt






- Altitudine del aeroporto : 3 ft
- Codice IATA : EYW


KEYW - Key West International

ULTIMO METAR :
  • 272153Z 21012KT 10SM -RA FEW075 SCT095 BKN110 24/17 A2989 RMK AO2 RAB47 SLP123 P0000 T02440167

METARs OBSOLETI :
  • 272129Z 22011KT 10SM BKN100 BKN110 24/18 A2991 RMK AO2 T02440183
  • 272053Z 16008KT 10SM BKN110 23/19 A2989 RMK AO2 SLP122 T02330189 56022
  • 271953Z 13006KT 10SM FEW080 SCT110 23/17 A2991 RMK AO2 SLP127 T02330172

TAF KEYW
Valido dal 27 a 19 ore il 28 a 18 ore UTC


271902Z 2719/2818 13005KT P6SM FEW025 BKN100
FM272200 19007KT P6SM VCSH SCT025 BKN050
FM280400 20007KT P6SM SCT015 BKN025
FM280900 26005KT P6SM BKN100
FM281500 01006KT P6SM FEW025



MetMap, La meteo Aeronautica in un colpo d'occhio ! - Copyright ORBIFLY Dicembre 2007 - Disclaimer

ORBIFLY MET'MAP TEAM :

Programmazione e sviluppo : Alexandra Zaïnal
Concezione : Baudouin d'Aumeries
Aiuto per la programmazione : Marc-Olivier Méhu
Supporto tecnico e logistico : Manuel Goepfert
Aiuto per la traduzione : Arnaldo La Scala

Contatto : metmap@orbifly.com




FONTI E CREDITI :

   NOAA       Earth
Advisory